sensor_id;sensor_type;location;lat;lon;timestamp;temperature;humidity
18218;DHT22;9234;49.344;11.120;2023-09-30T00:00:02;17.10;99.90
18218;DHT22;9234;49.344;11.120;2023-09-30T00:02:39;17.00;99.90
18218;DHT22;9234;49.344;11.120;2023-09-30T00:05:08;17.00;99.90
18218;DHT22;9234;49.344;11.120;2023-09-30T00:07:37;17.00;99.90
18218;DHT22;9234;49.344;11.120;2023-09-30T00:10:06;17.00;99.90
18218;DHT22;9234;49.344;11.120;2023-09-30T00:12:35;16.90;99.90
18218;DHT22;9234;49.344;11.120;2023-09-30T00:15:04;16.90;99.90
18218;DHT22;9234;49.344;11.120;2023-09-30T00:17:33;16.90;99.90
18218;DHT22;9234;49.344;11.120;2023-09-30T00:20:03;16.80;99.90
18218;DHT22;9234;49.344;11.120;2023-09-30T00:22:32;16.80;99.90
18218;DHT22;9234;49.344;11.120;2023-09-30T00:25:01;16.80;99.90
18218;DHT22;9234;49.344;11.120;2023-09-30T00:27:31;16.80;99.90
18218;DHT22;9234;49.344;11.120;2023-09-30T00:29:59;16.70;99.90
18218;DHT22;9234;49.344;11.120;2023-09-30T00:32:28;16.70;99.90
18218;DHT22;9234;49.344;11.120;2023-09-30T00:34:56;16.70;99.90
18218;DHT22;9234;49.344;11.120;2023-09-30T00:37:26;16.70;99.90
18218;DHT22;9234;49.344;11.120;2023-09-30T00:39:54;16.60;99.90
18218;DHT22;9234;49.344;11.120;2023-09-30T00:42:23;16.60;99.90
18218;DHT22;9234;49.344;11.120;2023-09-30T00:44:51;16.50;99.90
18218;DHT22;9234;49.344;11.120;2023-09-30T00:47:21;16.40;99.90
18218;DHT22;9234;49.344;11.120;2023-09-30T00:49:50;16.30;99.90
18218;DHT22;9234;49.344;11.120;2023-09-30T00:52:20;16.20;99.90
18218;DHT22;9234;49.344;11.120;2023-09-30T00:54:52;16.20;99.90
18218;DHT22;9234;49.344;11.120;2023-09-30T00:57:22;16.10;99.90
18218;DHT22;9234;49.344;11.120;2023-09-30T00:59:52;16.00;99.90
18218;DHT22;9234;49.344;11.120;2023-09-30T01:02:21;16.00;99.90
18218;DHT22;9234;49.344;11.120;2023-09-30T01:04:50;15.90;99.90
18218;DHT22;9234;49.344;11.120;2023-09-30T01:07:19;15.80;99.90
18218;DHT22;9234;49.344;11.120;2023-09-30T01:09:50;15.80;99.90
18218;DHT22;9234;49.344;11.120;2023-09-30T01:12:18;15.70;99.90
18218;DHT22;9234;49.344;11.120;2023-09-30T01:14:46;15.70;99.90
18218;DHT22;9234;49.344;11.120;2023-09-30T01:17:15;15.70;99.90
18218;DHT22;9234;49.344;11.120;2023-09-30T01:19:43;15.60;99.90
18218;DHT22;9234;49.344;11.120;2023-09-30T01:22:13;15.60;99.90
18218;DHT22;9234;49.344;11.120;2023-09-30T01:24:42;15.60;99.90
18218;DHT22;9234;49.344;11.120;2023-09-30T01:27:14;15.70;99.90
18218;DHT22;9234;49.344;11.120;2023-09-30T01:29:45;15.70;99.90
18218;DHT22;9234;49.344;11.120;2023-09-30T01:32:14;15.70;99.90
18218;DHT22;9234;49.344;11.120;2023-09-30T01:34:42;15.70;99.90
18218;DHT22;9234;49.344;11.120;2023-09-30T01:37:10;15.80;99.90
18218;DHT22;9234;49.344;11.120;2023-09-30T01:39:42;15.80;99.90
18218;DHT22;9234;49.344;11.120;2023-09-30T01:42:12;15.80;99.90
18218;DHT22;9234;49.344;11.120;2023-09-30T01:44:40;15.90;99.90
18218;DHT22;9234;49.344;11.120;2023-09-30T01:47:08;15.90;99.90
18218;DHT22;9234;49.344;11.120;2023-09-30T01:49:38;16.00;99.90
18218;DHT22;9234;49.344;11.120;2023-09-30T01:52:06;16.00;99.90
18218;DHT22;9234;49.344;11.120;2023-09-30T01:54:36;16.10;99.90
18218;DHT22;9234;49.344;11.120;2023-09-30T01:57:04;16.10;99.90
18218;DHT22;9234;49.344;11.120;2023-09-30T01:59:33;16.10;99.90
18218;DHT22;9234;49.344;11.120;2023-09-30T02:02:01;16.20;99.90
18218;DHT22;9234;49.344;11.120;2023-09-30T02:04:30;16.20;99.90
18218;DHT22;9234;49.344;11.120;2023-09-30T02:06:59;16.20;99.90
18218;DHT22;9234;49.344;11.120;2023-09-30T02:09:27;16.30;99.90
18218;DHT22;9234;49.344;11.120;2023-09-30T02:11:57;16.30;99.90
18218;DHT22;9234;49.344;11.120;2023-09-30T02:14:25;16.30;99.90
18218;DHT22;9234;49.344;11.120;2023-09-30T02:16:53;16.40;99.90
18218;DHT22;9234;49.344;11.120;2023-09-30T02:19:22;16.40;99.90
18218;DHT22;9234;49.344;11.120;2023-09-30T02:21:50;16.40;99.90
18218;DHT22;9234;49.344;11.120;2023-09-30T02:24:18;16.40;99.90
18218;DHT22;9234;49.344;11.120;2023-09-30T02:26:46;16.50;99.90
18218;DHT22;9234;49.344;11.120;2023-09-30T02:29:16;16.50;99.90
18218;DHT22;9234;49.344;11.120;2023-09-30T02:31:44;16.50;99.90
18218;DHT22;9234;49.344;11.120;2023-09-30T02:34:12;16.50;99.90
18218;DHT22;9234;49.344;11.120;2023-09-30T02:36:41;16.50;99.90
18218;DHT22;9234;49.344;11.120;2023-09-30T02:39:09;16.50;99.90
18218;DHT22;9234;49.344;11.120;2023-09-30T02:41:38;16.60;99.90
18218;DHT22;9234;49.344;11.120;2023-09-30T02:44:06;16.60;99.90
18218;DHT22;9234;49.344;11.120;2023-09-30T02:46:36;16.60;99.90
18218;DHT22;9234;49.344;11.120;2023-09-30T02:49:05;16.60;99.90
18218;DHT22;9234;49.344;11.120;2023-09-30T02:51:34;16.60;99.90
18218;DHT22;9234;49.344;11.120;2023-09-30T02:54:03;16.70;99.90
18218;DHT22;9234;49.344;11.120;2023-09-30T02:56:32;16.70;99.90
18218;DHT22;9234;49.344;11.120;2023-09-30T02:59:01;16.70;99.90
18218;DHT22;9234;49.344;11.120;2023-09-30T03:01:29;16.80;99.90
18218;DHT22;9234;49.344;11.120;2023-09-30T03:03:59;16.70;99.90
18218;DHT22;9234;49.344;11.120;2023-09-30T03:06:27;16.80;99.90
18218;DHT22;9234;49.344;11.120;2023-09-30T03:08:56;16.80;99.90
18218;DHT22;9234;49.344;11.120;2023-09-30T03:11:24;16.80;99.90
18218;DHT22;9234;49.344;11.120;2023-09-30T03:13:53;16.80;99.90
18218;DHT22;9234;49.344;11.120;2023-09-30T03:16:22;16.90;99.90
18218;DHT22;9234;49.344;11.120;2023-09-30T03:18:52;16.90;99.90
18218;DHT22;9234;49.344;11.120;2023-09-30T03:21:24;16.90;99.90
18218;DHT22;9234;49.344;11.120;2023-09-30T03:23:52;16.90;99.90
18218;DHT22;9234;49.344;11.120;2023-09-30T03:26:20;16.90;99.90
18218;DHT22;9234;49.344;11.120;2023-09-30T03:28:48;17.00;99.90
18218;DHT22;9234;49.344;11.120;2023-09-30T03:31:19;16.90;99.90
18218;DHT22;9234;49.344;11.120;2023-09-30T03:33:49;17.00;99.90
18218;DHT22;9234;49.344;11.120;2023-09-30T03:36:21;17.00;99.90
18218;DHT22;9234;49.344;11.120;2023-09-30T03:38:53;17.00;99.90
18218;DHT22;9234;49.344;11.120;2023-09-30T03:41:23;17.00;99.90
18218;DHT22;9234;49.344;11.120;2023-09-30T03:43:51;16.90;99.90
18218;DHT22;9234;49.344;11.120;2023-09-30T03:46:20;16.90;99.90
18218;DHT22;9234;49.344;11.120;2023-09-30T03:48:49;16.90;99.90
18218;DHT22;9234;49.344;11.120;2023-09-30T03:51:17;16.80;99.90
18218;DHT22;9234;49.344;11.120;2023-09-30T03:53:47;16.70;99.90
18218;DHT22;9234;49.344;11.120;2023-09-30T03:56:17;16.70;99.90
18218;DHT22;9234;49.344;11.120;2023-09-30T03:58:46;16.60;99.90
18218;DHT22;9234;49.344;11.120;2023-09-30T04:01:15;16.60;99.90
18218;DHT22;9234;49.344;11.120;2023-09-30T04:03:46;16.50;99.90
18218;DHT22;9234;49.344;11.120;2023-09-30T04:06:15;16.40;99.90
18218;DHT22;9234;49.344;11.120;2023-09-30T04:08:43;16.30;99.90
18218;DHT22;9234;49.344;11.120;2023-09-30T04:11:12;16.30;99.90
18218;DHT22;9234;49.344;11.120;2023-09-30T04:13:46;16.20;99.90
18218;DHT22;9234;49.344;11.120;2023-09-30T04:16:14;16.20;99.90
18218;DHT22;9234;49.344;11.120;2023-09-30T04:18:42;16.20;99.90
18218;DHT22;9234;49.344;11.120;2023-09-30T04:21:11;16.10;99.90
18218;DHT22;9234;49.344;11.120;2023-09-30T04:23:39;16.10;99.90
18218;DHT22;9234;49.344;11.120;2023-09-30T04:26:08;16.00;99.90
18218;DHT22;9234;49.344;11.120;2023-09-30T04:28:36;16.00;99.90
18218;DHT22;9234;49.344;11.120;2023-09-30T04:31:06;15.90;99.90
18218;DHT22;9234;49.344;11.120;2023-09-30T04:33:35;15.90;99.90
18218;DHT22;9234;49.344;11.120;2023-09-30T04:36:04;15.90;99.90
18218;DHT22;9234;49.344;11.120;2023-09-30T04:38:35;15.80;99.90
18218;DHT22;9234;49.344;11.120;2023-09-30T04:41:04;15.80;99.90
18218;DHT22;9234;49.344;11.120;2023-09-30T04:43:34;15.70;99.90
18218;DHT22;9234;49.344;11.120;2023-09-30T04:46:06;15.70;99.90
18218;DHT22;9234;49.344;11.120;2023-09-30T04:48:35;15.70;99.90
18218;DHT22;9234;49.344;11.120;2023-09-30T04:51:06;15.70;99.90
18218;DHT22;9234;49.344;11.120;2023-09-30T04:53:37;15.60;99.90
18218;DHT22;9234;49.344;11.120;2023-09-30T04:56:05;15.60;99.90
18218;DHT22;9234;49.344;11.120;2023-09-30T04:58:34;15.60;99.90
18218;DHT22;9234;49.344;11.120;2023-09-30T05:01:02;15.60;99.90
18218;DHT22;9234;49.344;11.120;2023-09-30T05:03:32;15.60;99.90
18218;DHT22;9234;49.344;11.120;2023-09-30T05:06:00;15.60;99.90
18218;DHT22;9234;49.344;11.120;2023-09-30T05:08:29;15.60;99.90
18218;DHT22;9234;49.344;11.120;2023-09-30T05:10:58;15.50;99.90
18218;DHT22;9234;49.344;11.120;2023-09-30T05:13:26;15.50;99.90
18218;DHT22;9234;49.344;11.120;2023-09-30T05:15:54;15.50;99.90
18218;DHT22;9234;49.344;11.120;2023-09-30T05:18:23;15.50;99.90
18218;DHT22;9234;49.344;11.120;2023-09-30T05:20:53;15.50;99.90
18218;DHT22;9234;49.344;11.120;2023-09-30T05:23:21;15.50;99.90
18218;DHT22;9234;49.344;11.120;2023-09-30T05:25:50;15.50;99.90
18218;DHT22;9234;49.344;11.120;2023-09-30T05:28:19;15.50;99.90
18218;DHT22;9234;49.344;11.120;2023-09-30T05:30:48;15.50;99.90
18218;DHT22;9234;49.344;11.120;2023-09-30T05:33:17;15.50;99.90
18218;DHT22;9234;49.344;11.120;2023-09-30T05:35:45;15.50;99.90
18218;DHT22;9234;49.344;11.120;2023-09-30T05:38:16;15.40;99.90
18218;DHT22;9234;49.344;11.120;2023-09-30T05:40:46;15.40;99.90
18218;DHT22;9234;49.344;11.120;2023-09-30T05:43:15;15.40;99.90
18218;DHT22;9234;49.344;11.120;2023-09-30T05:45:43;15.40;99.90
18218;DHT22;9234;49.344;11.120;2023-09-30T05:48:16;15.30;99.90
18218;DHT22;9234;49.344;11.120;2023-09-30T05:50:45;15.30;99.90
18218;DHT22;9234;49.344;11.120;2023-09-30T05:53:15;15.20;99.90
18218;DHT22;9234;49.344;11.120;2023-09-30T05:55:43;15.20;99.90
18218;DHT22;9234;49.344;11.120;2023-09-30T05:58:13;15.20;99.90
18218;DHT22;9234;49.344;11.120;2023-09-30T06:00:43;15.20;99.90
18218;DHT22;9234;49.344;11.120;2023-09-30T06:03:11;15.10;99.90
18218;DHT22;9234;49.344;11.120;2023-09-30T06:05:40;15.20;99.90
18218;DHT22;9234;49.344;11.120;2023-09-30T06:08:10;15.20;99.90
18218;DHT22;9234;49.344;11.120;2023-09-30T06:10:42;15.20;99.90
18218;DHT22;9234;49.344;11.120;2023-09-30T06:13:11;15.20;99.90
18218;DHT22;9234;49.344;11.120;2023-09-30T06:15:42;15.20;99.90
18218;DHT22;9234;49.344;11.120;2023-09-30T06:18:13;15.20;99.90
18218;DHT22;9234;49.344;11.120;2023-09-30T06:20:42;15.20;99.90
18218;DHT22;9234;49.344;11.120;2023-09-30T06:23:10;15.20;99.90
18218;DHT22;9234;49.344;11.120;2023-09-30T06:25:38;15.20;99.90
18218;DHT22;9234;49.344;11.120;2023-09-30T06:28:09;15.30;99.90
18218;DHT22;9234;49.344;11.120;2023-09-30T06:30:37;15.30;99.90
18218;DHT22;9234;49.344;11.120;2023-09-30T06:33:09;15.30;99.90
18218;DHT22;9234;49.344;11.120;2023-09-30T06:35:41;15.30;99.90
18218;DHT22;9234;49.344;11.120;2023-09-30T06:38:17;15.40;99.90
18218;DHT22;9234;49.344;11.120;2023-09-30T06:40:46;15.40;99.90
18218;DHT22;9234;49.344;11.120;2023-09-30T06:43:16;15.50;99.90
18218;DHT22;9234;49.344;11.120;2023-09-30T06:45:45;15.50;99.90
18218;DHT22;9234;49.344;11.120;2023-09-30T06:48:14;15.50;99.90
18218;DHT22;9234;49.344;11.120;2023-09-30T06:50:46;15.60;99.90
18218;DHT22;9234;49.344;11.120;2023-09-30T06:53:16;15.60;99.90
18218;DHT22;9234;49.344;11.120;2023-09-30T06:55:45;15.60;99.90
18218;DHT22;9234;49.344;11.120;2023-09-30T06:58:13;15.70;99.90
18218;DHT22;9234;49.344;11.120;2023-09-30T07:00:49;15.80;99.90
18218;DHT22;9234;49.344;11.120;2023-09-30T07:03:20;15.80;99.90
18218;DHT22;9234;49.344;11.120;2023-09-30T07:05:53;15.90;99.90
18218;DHT22;9234;49.344;11.120;2023-09-30T07:08:23;15.90;99.90
18218;DHT22;9234;49.344;11.120;2023-09-30T07:10:51;16.00;99.90
18218;DHT22;9234;49.344;11.120;2023-09-30T07:13:20;16.00;99.90
18218;DHT22;9234;49.344;11.120;2023-09-30T07:15:49;16.00;99.90
18218;DHT22;9234;49.344;11.120;2023-09-30T07:18:18;16.00;99.90
18218;DHT22;9234;49.344;11.120;2023-09-30T07:20:46;16.00;99.90
18218;DHT22;9234;49.344;11.120;2023-09-30T07:23:15;16.00;99.90
18218;DHT22;9234;49.344;11.120;2023-09-30T07:25:46;16.00;99.90
18218;DHT22;9234;49.344;11.120;2023-09-30T07:28:15;16.00;99.90
18218;DHT22;9234;49.344;11.120;2023-09-30T07:30:44;16.00;99.90
18218;DHT22;9234;49.344;11.120;2023-09-30T07:33:14;16.00;99.90
18218;DHT22;9234;49.344;11.120;2023-09-30T07:35:42;15.90;99.90
18218;DHT22;9234;49.344;11.120;2023-09-30T07:38:10;15.90;99.90
18218;DHT22;9234;49.344;11.120;2023-09-30T07:40:39;15.90;99.90
18218;DHT22;9234;49.344;11.120;2023-09-30T07:43:07;15.80;99.90
18218;DHT22;9234;49.344;11.120;2023-09-30T07:45:35;15.90;99.90
18218;DHT22;9234;49.344;11.120;2023-09-30T07:48:05;15.90;99.90
18218;DHT22;9234;49.344;11.120;2023-09-30T07:50:37;15.90;99.90
18218;DHT22;9234;49.344;11.120;2023-09-30T07:53:06;15.90;99.90
18218;DHT22;9234;49.344;11.120;2023-09-30T07:55:34;15.90;99.90
18218;DHT22;9234;49.344;11.120;2023-09-30T07:58:03;15.90;99.90
18218;DHT22;9234;49.344;11.120;2023-09-30T08:00:31;16.00;99.90
18218;DHT22;9234;49.344;11.120;2023-09-30T08:03:01;16.10;99.90
18218;DHT22;9234;49.344;11.120;2023-09-30T08:05:29;16.30;99.90
18218;DHT22;9234;49.344;11.120;2023-09-30T08:07:59;16.40;99.90
18218;DHT22;9234;49.344;11.120;2023-09-30T08:10:30;16.50;99.90
18218;DHT22;9234;49.344;11.120;2023-09-30T08:12:59;16.70;99.90
18218;DHT22;9234;49.344;11.120;2023-09-30T08:15:32;16.90;99.90
18218;DHT22;9234;49.344;11.120;2023-09-30T08:18:03;17.00;99.90
18218;DHT22;9234;49.344;11.120;2023-09-30T08:20:33;17.10;99.90
18218;DHT22;9234;49.344;11.120;2023-09-30T08:23:03;17.20;99.90
18218;DHT22;9234;49.344;11.120;2023-09-30T08:25:31;17.40;99.90
18218;DHT22;9234;49.344;11.120;2023-09-30T08:27:59;17.60;99.90
18218;DHT22;9234;49.344;11.120;2023-09-30T08:30:27;17.70;99.90
18218;DHT22;9234;49.344;11.120;2023-09-30T08:32:56;17.80;99.90
18218;DHT22;9234;49.344;11.120;2023-09-30T08:35:24;17.90;99.90
18218;DHT22;9234;49.344;11.120;2023-09-30T08:37:52;18.00;99.90
18218;DHT22;9234;49.344;11.120;2023-09-30T08:40:22;18.10;99.90
18218;DHT22;9234;49.344;11.120;2023-09-30T08:42:53;18.20;99.90
18218;DHT22;9234;49.344;11.120;2023-09-30T08:45:22;18.20;99.90
18218;DHT22;9234;49.344;11.120;2023-09-30T08:47:51;18.30;99.90
18218;DHT22;9234;49.344;11.120;2023-09-30T08:50:21;18.40;99.90
18218;DHT22;9234;49.344;11.120;2023-09-30T08:52:50;18.40;99.90
18218;DHT22;9234;49.344;11.120;2023-09-30T08:55:19;18.50;99.90
18218;DHT22;9234;49.344;11.120;2023-09-30T08:57:50;18.40;99.90
18218;DHT22;9234;49.344;11.120;2023-09-30T09:00:20;18.40;99.90
18218;DHT22;9234;49.344;11.120;2023-09-30T09:02:50;18.40;99.90
18218;DHT22;9234;49.344;11.120;2023-09-30T09:05:18;18.40;99.90
18218;DHT22;9234;49.344;11.120;2023-09-30T09:07:46;18.40;99.90
18218;DHT22;9234;49.344;11.120;2023-09-30T09:10:17;18.40;99.90
18218;DHT22;9234;49.344;11.120;2023-09-30T09:12:56;18.50;99.90
18218;DHT22;9234;49.344;11.120;2023-09-30T09:15:27;18.60;99.90
18218;DHT22;9234;49.344;11.120;2023-09-30T09:17:57;18.60;99.90
18218;DHT22;9234;49.344;11.120;2023-09-30T09:20:26;18.70;99.90
18218;DHT22;9234;49.344;11.120;2023-09-30T09:22:57;18.70;99.90
18218;DHT22;9234;49.344;11.120;2023-09-30T09:25:27;18.80;99.90
18218;DHT22;9234;49.344;11.120;2023-09-30T09:27:56;18.80;99.90
18218;DHT22;9234;49.344;11.120;2023-09-30T09:30:26;18.80;99.90
18218;DHT22;9234;49.344;11.120;2023-09-30T09:32:59;19.00;99.90
18218;DHT22;9234;49.344;11.120;2023-09-30T09:35:29;19.00;99.90
18218;DHT22;9234;49.344;11.120;2023-09-30T09:38:00;19.10;99.90
18218;DHT22;9234;49.344;11.120;2023-09-30T09:40:31;19.00;99.90
18218;DHT22;9234;49.344;11.120;2023-09-30T09:43:03;19.00;99.90
18218;DHT22;9234;49.344;11.120;2023-09-30T09:45:34;19.10;99.90
18218;DHT22;9234;49.344;11.120;2023-09-30T09:48:05;19.30;99.90
18218;DHT22;9234;49.344;11.120;2023-09-30T09:50:35;19.40;99.90
18218;DHT22;9234;49.344;11.120;2023-09-30T09:53:05;19.50;99.90
18218;DHT22;9234;49.344;11.120;2023-09-30T09:55:36;19.50;99.90
18218;DHT22;9234;49.344;11.120;2023-09-30T09:58:08;19.60;99.90
18218;DHT22;9234;49.344;11.120;2023-09-30T10:00:38;19.70;99.90
18218;DHT22;9234;49.344;11.120;2023-09-30T10:03:07;19.90;99.90
18218;DHT22;9234;49.344;11.120;2023-09-30T10:05:38;19.80;99.90
18218;DHT22;9234;49.344;11.120;2023-09-30T10:08:11;19.80;99.90
18218;DHT22;9234;49.344;11.120;2023-09-30T10:10:44;19.80;99.90
18218;DHT22;9234;49.344;11.120;2023-09-30T10:16:47;20.00;99.90
18218;DHT22;9234;49.344;11.120;2023-09-30T10:19:19;20.20;99.90
18218;DHT22;9234;49.344;11.120;2023-09-30T10:22:24;20.20;99.90
18218;DHT22;9234;49.344;11.120;2023-09-30T10:24:54;20.30;99.90
18218;DHT22;9234;49.344;11.120;2023-09-30T10:27:33;20.40;99.90
18218;DHT22;9234;49.344;11.120;2023-09-30T10:30:10;20.60;99.90
18218;DHT22;9234;49.344;11.120;2023-09-30T10:33:09;20.70;99.40
18218;DHT22;9234;49.344;11.120;2023-09-30T10:35:50;20.70;98.60
18218;DHT22;9234;49.344;11.120;2023-09-30T10:38:39;20.60;98.40
18218;DHT22;9234;49.344;11.120;2023-09-30T10:41:09;20.60;98.00
18218;DHT22;9234;49.344;11.120;2023-09-30T10:43:40;20.60;98.70
18218;DHT22;9234;49.344;11.120;2023-09-30T10:46:32;20.70;98.20
18218;DHT22;9234;49.344;11.120;2023-09-30T10:49:17;20.60;97.40
18218;DHT22;9234;49.344;11.120;2023-09-30T10:52:00;20.50;97.70
18218;DHT22;9234;49.344;11.120;2023-09-30T10:54:30;20.40;97.70
18218;DHT22;9234;49.344;11.120;2023-09-30T10:57:00;20.50;98.10
18218;DHT22;9234;49.344;11.120;2023-09-30T10:59:31;20.60;97.80
18218;DHT22;9234;49.344;11.120;2023-09-30T11:02:03;20.70;97.70
18218;DHT22;9234;49.344;11.120;2023-09-30T11:04:46;20.80;97.70
18218;DHT22;9234;49.344;11.120;2023-09-30T11:07:22;20.80;96.60
18218;DHT22;9234;49.344;11.120;2023-09-30T11:09:53;20.80;96.40
18218;DHT22;9234;49.344;11.120;2023-09-30T11:12:22;20.80;96.90
18218;DHT22;9234;49.344;11.120;2023-09-30T11:14:59;20.90;97.10
18218;DHT22;9234;49.344;11.120;2023-09-30T11:17:31;21.00;97.10
18218;DHT22;9234;49.344;11.120;2023-09-30T11:20:00;21.00;96.60
18218;DHT22;9234;49.344;11.120;2023-09-30T11:22:28;21.10;96.10
18218;DHT22;9234;49.344;11.120;2023-09-30T11:24:57;21.20;96.40
18218;DHT22;9234;49.344;11.120;2023-09-30T11:27:25;21.10;96.00
18218;DHT22;9234;49.344;11.120;2023-09-30T11:29:54;21.00;96.10
18218;DHT22;9234;49.344;11.120;2023-09-30T11:32:26;21.10;96.80
18218;DHT22;9234;49.344;11.120;2023-09-30T11:34:57;21.20;96.70
18218;DHT22;9234;49.344;11.120;2023-09-30T11:37:31;21.30;96.70
18218;DHT22;9234;49.344;11.120;2023-09-30T11:40:09;21.40;96.20
18218;DHT22;9234;49.344;11.120;2023-09-30T11:42:38;21.50;96.60
18218;DHT22;9234;49.344;11.120;2023-09-30T11:45:22;21.60;96.10
18218;DHT22;9234;49.344;11.120;2023-09-30T11:47:51;21.70;96.00
18218;DHT22;9234;49.344;11.120;2023-09-30T11:50:21;21.60;95.70
18218;DHT22;9234;49.344;11.120;2023-09-30T11:52:51;21.80;95.60
18218;DHT22;9234;49.344;11.120;2023-09-30T11:55:19;21.90;95.90
18218;DHT22;9234;49.344;11.120;2023-09-30T11:57:48;22.30;94.90
18218;DHT22;9234;49.344;11.120;2023-09-30T12:00:17;22.50;93.50
18218;DHT22;9234;49.344;11.120;2023-09-30T12:02:45;22.70;93.30
18218;DHT22;9234;49.344;11.120;2023-09-30T12:05:14;22.80;92.50
18218;DHT22;9234;49.344;11.120;2023-09-30T12:07:44;23.10;91.60
18218;DHT22;9234;49.344;11.120;2023-09-30T12:10:13;23.30;90.60
18218;DHT22;9234;49.344;11.120;2023-09-30T12:12:42;23.50;90.90
18218;DHT22;9234;49.344;11.120;2023-09-30T12:15:11;23.80;90.80
18218;DHT22;9234;49.344;11.120;2023-09-30T12:17:40;24.10;90.50
18218;DHT22;9234;49.344;11.120;2023-09-30T12:20:09;24.40;89.00
18218;DHT22;9234;49.344;11.120;2023-09-30T12:22:41;24.50;86.50
18218;DHT22;9234;49.344;11.120;2023-09-30T12:25:10;24.60;86.00
18218;DHT22;9234;49.344;11.120;2023-09-30T12:27:39;24.60;86.30
18218;DHT22;9234;49.344;11.120;2023-09-30T12:30:07;24.70;84.80
18218;DHT22;9234;49.344;11.120;2023-09-30T12:32:36;24.70;82.50
18218;DHT22;9234;49.344;11.120;2023-09-30T12:35:07;24.60;81.90
18218;DHT22;9234;49.344;11.120;2023-09-30T12:37:37;24.70;82.50
18218;DHT22;9234;49.344;11.120;2023-09-30T12:40:06;24.80;83.20
18218;DHT22;9234;49.344;11.120;2023-09-30T12:42:38;25.00;82.50
18218;DHT22;9234;49.344;11.120;2023-09-30T12:45:07;25.00;79.30
18218;DHT22;9234;49.344;11.120;2023-09-30T12:47:36;24.80;77.10
18218;DHT22;9234;49.344;11.120;2023-09-30T12:50:06;25.00;79.20
18218;DHT22;9234;49.344;11.120;2023-09-30T12:52:38;25.10;76.80
18218;DHT22;9234;49.344;11.120;2023-09-30T12:55:08;25.10;74.90
18218;DHT22;9234;49.344;11.120;2023-09-30T12:57:38;24.90;74.30
18218;DHT22;9234;49.344;11.120;2023-09-30T13:00:08;24.60;73.50
18218;DHT22;9234;49.344;11.120;2023-09-30T13:02:37;24.40;75.90
18218;DHT22;9234;49.344;11.120;2023-09-30T13:05:06;24.60;77.70
18218;DHT22;9234;49.344;11.120;2023-09-30T13:07:34;24.80;77.70
18218;DHT22;9234;49.344;11.120;2023-09-30T13:10:03;25.10;77.20
18218;DHT22;9234;49.344;11.120;2023-09-30T13:12:34;25.20;76.60
18218;DHT22;9234;49.344;11.120;2023-09-30T13:15:05;25.40;76.10
18218;DHT22;9234;49.344;11.120;2023-09-30T13:17:35;25.70;75.50
18218;DHT22;9234;49.344;11.120;2023-09-30T13:20:04;25.90;74.80
18218;DHT22;9234;49.344;11.120;2023-09-30T13:22:35;25.90;72.40
18218;DHT22;9234;49.344;11.120;2023-09-30T13:25:05;25.80;71.90
18218;DHT22;9234;49.344;11.120;2023-09-30T13:27:35;25.70;72.10
18218;DHT22;9234;49.344;11.120;2023-09-30T13:30:06;25.70;71.10
18218;DHT22;9234;49.344;11.120;2023-09-30T13:32:35;25.50;70.50
18218;DHT22;9234;49.344;11.120;2023-09-30T13:35:04;25.30;71.90
18218;DHT22;9234;49.344;11.120;2023-09-30T13:37:33;25.10;70.90
18218;DHT22;9234;49.344;11.120;2023-09-30T13:40:02;25.00;71.70
18218;DHT22;9234;49.344;11.120;2023-09-30T13:42:35;25.10;72.60
18218;DHT22;9234;49.344;11.120;2023-09-30T13:45:05;25.20;71.80
18218;DHT22;9234;49.344;11.120;2023-09-30T13:47:35;25.30;71.80
18218;DHT22;9234;49.344;11.120;2023-09-30T13:50:04;25.20;71.00
18218;DHT22;9234;49.344;11.120;2023-09-30T13:52:34;25.30;72.00
18218;DHT22;9234;49.344;11.120;2023-09-30T13:55:03;25.40;71.00
18218;DHT22;9234;49.344;11.120;2023-09-30T13:57:31;25.40;69.90
18218;DHT22;9234;49.344;11.120;2023-09-30T14:00:00;25.40;69.50
18218;DHT22;9234;49.344;11.120;2023-09-30T14:02:31;25.50;70.80
18218;DHT22;9234;49.344;11.120;2023-09-30T14:05:00;25.50;70.20
18218;DHT22;9234;49.344;11.120;2023-09-30T14:07:29;25.60;70.50
18218;DHT22;9234;49.344;11.120;2023-09-30T14:09:57;25.60;68.50
18218;DHT22;9234;49.344;11.120;2023-09-30T14:12:25;25.60;67.40
18218;DHT22;9234;49.344;11.120;2023-09-30T14:14:54;25.60;68.10
18218;DHT22;9234;49.344;11.120;2023-09-30T14:17:22;25.70;68.90
18218;DHT22;9234;49.344;11.120;2023-09-30T14:19:57;25.60;66.50
18218;DHT22;9234;49.344;11.120;2023-09-30T14:22:25;25.40;66.70
18218;DHT22;9234;49.344;11.120;2023-09-30T14:24:53;25.20;66.50
18218;DHT22;9234;49.344;11.120;2023-09-30T14:27:22;25.00;67.20
18218;DHT22;9234;49.344;11.120;2023-09-30T14:29:50;24.80;68.10
18218;DHT22;9234;49.344;11.120;2023-09-30T14:32:18;24.60;68.90
18218;DHT22;9234;49.344;11.120;2023-09-30T14:34:47;24.40;69.80
18218;DHT22;9234;49.344;11.120;2023-09-30T14:37:17;24.30;70.70
18218;DHT22;9234;49.344;11.120;2023-09-30T14:39:45;24.20;71.50
18218;DHT22;9234;49.344;11.120;2023-09-30T14:42:13;24.30;71.70
18218;DHT22;9234;49.344;11.120;2023-09-30T14:44:42;24.40;70.80
18218;DHT22;9234;49.344;11.120;2023-09-30T14:47:10;24.40;70.30
18218;DHT22;9234;49.344;11.120;2023-09-30T14:49:39;24.50;70.20
18218;DHT22;9234;49.344;11.120;2023-09-30T14:52:07;24.40;69.60
18218;DHT22;9234;49.344;11.120;2023-09-30T14:54:37;24.40;70.80
18218;DHT22;9234;49.344;11.120;2023-09-30T14:57:06;24.40;71.20
18218;DHT22;9234;49.344;11.120;2023-09-30T14:59:35;24.40;71.60
18218;DHT22;9234;49.344;11.120;2023-09-30T15:02:03;24.40;71.70
18218;DHT22;9234;49.344;11.120;2023-09-30T15:04:35;24.40;72.20
18218;DHT22;9234;49.344;11.120;2023-09-30T15:07:03;24.30;71.90
18218;DHT22;9234;49.344;11.120;2023-09-30T15:09:32;24.40;72.50
18218;DHT22;9234;49.344;11.120;2023-09-30T15:12:03;24.30;71.60
18218;DHT22;9234;49.344;11.120;2023-09-30T15:14:32;24.30;72.20
18218;DHT22;9234;49.344;11.120;2023-09-30T15:17:00;24.20;72.40
18218;DHT22;9234;49.344;11.120;2023-09-30T15:19:28;24.10;72.80
18218;DHT22;9234;49.344;11.120;2023-09-30T15:21:56;24.00;73.40
18218;DHT22;9234;49.344;11.120;2023-09-30T15:24:25;23.90;74.10
18218;DHT22;9234;49.344;11.120;2023-09-30T15:26:54;23.80;73.90
18218;DHT22;9234;49.344;11.120;2023-09-30T15:29:23;23.70;74.10
18218;DHT22;9234;49.344;11.120;2023-09-30T15:31:52;23.50;73.90
18218;DHT22;9234;49.344;11.120;2023-09-30T15:34:20;23.40;74.00
18218;DHT22;9234;49.344;11.120;2023-09-30T15:36:49;23.30;74.70
18218;DHT22;9234;49.344;11.120;2023-09-30T15:39:17;23.20;75.80
18218;DHT22;9234;49.344;11.120;2023-09-30T15:41:45;23.10;76.70
18218;DHT22;9234;49.344;11.120;2023-09-30T15:44:14;23.00;76.60
18218;DHT22;9234;49.344;11.120;2023-09-30T15:46:43;22.90;76.80
18218;DHT22;9234;49.344;11.120;2023-09-30T15:49:11;22.70;77.00